createdAt,value
2022-11-05T00:01:38.513Z,94.92
2022-11-05T00:04:05.175Z,95.51
2022-11-05T00:06:31.612Z,95.75
2022-11-05T00:08:58.006Z,94.85
2022-11-05T00:11:24.381Z,95.06
2022-11-05T00:13:50.832Z,95.36
2022-11-05T00:16:17.210Z,95.19
2022-11-05T00:18:43.591Z,95.44
2022-11-05T00:21:10.007Z,95.40
2022-11-05T00:23:36.381Z,95.25
2022-11-05T00:26:04.482Z,94.84
2022-11-05T00:28:31.183Z,94.42
2022-11-05T00:31:04.599Z,94.51
2022-11-05T00:33:31.234Z,94.92
2022-11-05T00:35:57.662Z,94.60
2022-11-05T00:38:24.266Z,95.05
2022-11-05T00:40:50.657Z,95.28
2022-11-05T00:43:17.039Z,94.72
2022-11-05T00:45:43.446Z,95.24
2022-11-05T00:48:09.879Z,94.93
2022-11-05T00:50:36.253Z,95.58
2022-11-05T00:53:02.770Z,95.15
2022-11-05T00:55:39.000Z,95.49
2022-11-05T00:58:12.700Z,95.02
2022-11-05T01:00:40.690Z,95.42
2022-11-05T01:03:13.327Z,95.01
2022-11-05T01:05:44.466Z,95.13
2022-11-05T01:08:11.627Z,95.67
2022-11-05T01:10:50.228Z,96.13
2022-11-05T01:13:18.562Z,95.88
2022-11-05T01:15:45.232Z,95.83
2022-11-05T01:18:11.727Z,96.35
2022-11-05T01:20:38.293Z,95.76
2022-11-05T01:23:08.927Z,95.88
2022-11-05T01:25:39.487Z,96.07
2022-11-05T01:28:05.901Z,95.67
2022-11-05T01:30:32.293Z,95.74
2022-11-05T01:32:58.690Z,95.75
2022-11-05T01:35:26.459Z,95.22
2022-11-05T01:37:52.857Z,95.47
2022-11-05T01:40:22.014Z,95.74
2022-11-05T01:42:48.418Z,95.71
2022-11-05T01:45:22.202Z,95.95
2022-11-05T01:48:01.851Z,96.00
2022-11-05T01:50:45.114Z,96.32
2022-11-05T01:53:28.412Z,96.20
2022-11-05T01:56:03.366Z,96.13
2022-11-05T01:58:33.921Z,96.32
2022-11-05T02:01:00.328Z,95.83
2022-11-05T02:03:26.717Z,95.99
2022-11-05T02:05:53.095Z,95.94
2022-11-05T02:08:28.590Z,96.48
2022-11-05T02:10:54.995Z,96.62
2022-11-05T02:13:21.379Z,96.45
2022-11-05T02:15:51.661Z,96.20
2022-11-05T02:18:29.024Z,96.41
2022-11-05T02:21:27.289Z,96.40
2022-11-05T02:24:00.352Z,96.04
2022-11-05T02:26:49.118Z,96.75
2022-11-05T02:29:47.343Z,96.45
2022-11-05T02:32:41.034Z,96.47
2022-11-05T02:35:31.357Z,96.60
2022-11-05T02:38:13.125Z,96.87
2022-11-05T02:40:52.617Z,96.82
2022-11-05T02:43:34.765Z,96.62
2022-11-05T02:46:12.254Z,96.23
2022-11-05T02:48:38.565Z,96.81
2022-11-05T02:51:10.106Z,96.14
2022-11-05T02:53:49.784Z,96.49
2022-11-05T02:56:24.257Z,96.39
2022-11-05T02:58:50.658Z,96.21
2022-11-05T03:01:17.183Z,96.01
2022-11-05T03:03:48.552Z,96.26
2022-11-05T03:06:18.413Z,95.98
2022-11-05T03:09:17.182Z,96.47
2022-11-05T03:12:06.055Z,96.71
2022-11-05T03:14:36.499Z,96.05
2022-11-05T03:17:17.880Z,96.32
2022-11-05T03:20:10.759Z,96.30
2022-11-05T03:22:40.724Z,96.90
2022-11-05T03:25:11.013Z,96.64
2022-11-05T03:27:38.631Z,96.66
2022-11-05T03:30:09.287Z,96.78
2022-11-05T03:32:37.542Z,96.85
2022-11-05T03:35:23.067Z,96.45
2022-11-05T03:37:50.062Z,96.25
2022-11-05T03:40:16.822Z,96.35
2022-11-05T03:42:45.006Z,96.35
2022-11-05T03:45:15.756Z,96.75
2022-11-05T03:47:42.899Z,96.92
2022-11-05T03:50:41.233Z,96.77
2022-11-05T03:53:16.147Z,97.13
2022-11-05T03:56:05.006Z,96.43
2022-11-05T03:58:31.379Z,96.59
2022-11-05T04:00:59.857Z,96.40
2022-11-05T04:03:26.235Z,96.75
2022-11-05T04:05:54.015Z,96.75
2022-11-05T04:08:20.411Z,96.73
2022-11-05T04:10:46.784Z,97.14
2022-11-05T04:13:13.392Z,96.60
2022-11-05T04:15:39.954Z,96.37
2022-11-05T04:18:06.332Z,96.62
2022-11-05T04:20:32.692Z,96.31
2022-11-05T04:23:03.605Z,96.00
2022-11-05T04:25:30.004Z,96.76
2022-11-05T04:27:58.850Z,96.49
2022-11-05T04:30:25.306Z,96.55
2022-11-05T04:33:12.363Z,96.69
2022-11-05T04:35:40.767Z,96.55
2022-11-05T04:38:14.362Z,96.29
2022-11-05T04:40:40.982Z,96.79
2022-11-05T04:43:13.645Z,96.78
2022-11-05T04:45:41.440Z,96.29
2022-11-05T04:48:07.820Z,96.55
2022-11-05T04:50:34.230Z,96.35
2022-11-05T04:53:00.620Z,96.81
2022-11-05T04:55:27.138Z,96.73
2022-11-05T04:57:53.723Z,96.59
2022-11-05T05:00:20.970Z,96.58
2022-11-05T05:02:47.472Z,96.55
2022-11-05T05:05:13.911Z,96.85
2022-11-05T05:07:40.836Z,96.38
2022-11-05T05:10:07.687Z,96.84
2022-11-05T05:12:34.414Z,96.83
2022-11-05T05:15:00.814Z,96.84
2022-11-05T05:17:27.239Z,96.61
2022-11-05T05:19:53.662Z,96.25
2022-11-05T05:22:20.108Z,96.72
2022-11-05T05:24:52.441Z,96.62
2022-11-05T05:27:19.264Z,96.41
2022-11-05T05:29:45.638Z,96.18
2022-11-05T05:32:12.013Z,96.38
2022-11-05T05:34:38.386Z,96.12
2022-11-05T05:37:04.786Z,96.30
2022-11-05T05:39:31.169Z,96.27
2022-11-05T05:41:57.623Z,96.21
2022-11-05T05:44:24.082Z,96.12
2022-11-05T05:46:50.450Z,96.05
2022-11-05T05:49:16.838Z,96.27
2022-11-05T05:51:43.204Z,95.70
2022-11-05T05:54:10.649Z,96.03
2022-11-05T05:56:37.017Z,96.18
2022-11-05T05:59:05.029Z,96.37
2022-11-05T06:01:31.474Z,95.89
2022-11-05T06:03:57.913Z,96.43
2022-11-05T06:06:24.306Z,96.22
2022-11-05T06:08:50.678Z,96.08
2022-11-05T06:11:17.058Z,96.26
2022-11-05T06:13:43.470Z,96.04
2022-11-05T06:16:10.005Z,96.24
2022-11-05T06:18:36.710Z,96.25
2022-11-05T06:21:07.328Z,96.41
2022-11-05T06:23:34.335Z,96.31
2022-11-05T06:26:05.131Z,96.29
2022-11-05T06:28:31.751Z,95.99
2022-11-05T06:30:58.144Z,96.13
2022-11-05T06:33:24.519Z,96.30
2022-11-05T06:35:50.915Z,96.78
2022-11-05T06:38:17.302Z,96.33
2022-11-05T06:40:43.699Z,96.09
2022-11-05T06:43:10.482Z,96.19
2022-11-05T06:45:37.150Z,96.14
2022-11-05T06:48:03.596Z,96.25
2022-11-05T06:50:31.158Z,96.38
2022-11-05T06:53:01.224Z,96.13
2022-11-05T06:55:28.350Z,96.14
2022-11-05T06:57:55.156Z,96.28
2022-11-05T07:00:21.706Z,96.15
2022-11-05T07:02:48.187Z,96.22
2022-11-05T07:05:14.780Z,96.31
2022-11-05T07:07:41.522Z,95.96
2022-11-05T07:10:09.012Z,96.10
2022-11-05T07:12:35.416Z,96.15
2022-11-05T07:15:01.800Z,96.03
2022-11-05T07:17:28.229Z,96.26
2022-11-05T07:19:54.605Z,96.47
2022-11-05T07:22:21.009Z,96.06
2022-11-05T07:24:47.392Z,96.50
2022-11-05T07:27:14.084Z,96.14
2022-11-05T07:29:40.481Z,95.94
2022-11-05T07:32:06.887Z,96.20
2022-11-05T07:34:33.257Z,96.08
2022-11-05T07:36:59.652Z,95.87
2022-11-05T07:39:26.035Z,95.70
2022-11-05T07:41:52.745Z,95.76
2022-11-05T07:44:19.117Z,95.35
2022-11-05T07:46:47.256Z,95.38
2022-11-05T07:49:13.728Z,94.98
2022-11-05T07:51:40.136Z,95.41
2022-11-05T07:54:06.949Z,95.18
2022-11-05T07:56:33.345Z,94.67
2022-11-05T07:58:59.850Z,94.86
2022-11-05T08:01:26.502Z,95.02
2022-11-05T08:03:53.076Z,94.46
2022-11-05T08:06:19.461Z,95.26
2022-11-05T08:08:45.868Z,94.95
2022-11-05T08:11:12.302Z,95.02
2022-11-05T08:13:38.682Z,94.88
2022-11-05T08:16:05.955Z,94.78
2022-11-05T08:18:32.407Z,94.37
2022-11-05T08:20:59.543Z,94.21
2022-11-05T08:23:26.549Z,94.43
2022-11-05T08:25:53.006Z,94.30
2022-11-05T08:28:19.398Z,94.08
2022-11-05T08:30:52.345Z,94.22
2022-11-05T08:33:19.010Z,93.59
2022-11-05T08:35:45.679Z,93.76
2022-11-05T08:38:15.989Z,93.89
2022-11-05T08:40:43.234Z,93.93
2022-11-05T08:43:10.967Z,93.83
2022-11-05T08:45:38.471Z,93.50
2022-11-05T08:48:10.956Z,93.51
2022-11-05T08:50:37.801Z,93.17
2022-11-05T08:53:04.742Z,93.06
2022-11-05T08:55:37.695Z,93.31
2022-11-05T08:58:05.733Z,93.40
2022-11-05T09:00:34.001Z,93.05
2022-11-05T09:03:02.500Z,92.54
2022-11-05T09:05:30.121Z,92.35
2022-11-05T09:08:01.019Z,93.21
2022-11-05T09:10:28.120Z,91.99
2022-11-05T09:12:55.115Z,92.10
2022-11-05T09:15:21.511Z,92.22
2022-11-05T09:17:47.906Z,91.41
2022-11-05T09:20:14.384Z,91.55
2022-11-05T09:22:43.443Z,91.60
2022-11-05T09:25:10.112Z,91.15
2022-11-05T09:27:36.486Z,91.73
2022-11-05T09:30:03.170Z,91.63
2022-11-05T09:32:31.204Z,90.94
2022-11-05T09:34:57.615Z,90.66
2022-11-05T09:37:23.991Z,90.56
2022-11-05T09:39:50.400Z,90.67
2022-11-05T09:42:17.054Z,90.07
2022-11-05T09:44:47.746Z,90.22
2022-11-05T09:47:17.244Z,90.28
2022-11-05T09:49:51.908Z,90.50
2022-11-05T09:52:36.495Z,90.26
2022-11-05T09:55:04.055Z,89.46
2022-11-05T09:58:00.330Z,89.19
2022-11-05T10:00:26.856Z,89.41
2022-11-05T10:03:03.334Z,88.31
2022-11-05T10:05:29.783Z,88.04
2022-11-05T10:08:05.044Z,87.93
2022-11-05T10:10:41.067Z,88.07
2022-11-05T10:13:17.131Z,87.97
2022-11-05T10:15:51.885Z,87.19
2022-11-05T10:18:25.867Z,86.83
2022-11-05T10:20:52.517Z,87.69
2022-11-05T10:23:19.707Z,87.14
2022-11-05T10:25:55.086Z,87.09
2022-11-05T10:28:24.913Z,85.49
2022-11-05T10:30:52.902Z,84.59
2022-11-05T10:33:24.859Z,85.21
2022-11-05T10:35:52.265Z,84.87
2022-11-05T10:38:18.648Z,83.51
2022-11-05T10:41:00.103Z,83.44
2022-11-05T10:43:45.551Z,84.74
2022-11-05T10:46:37.533Z,85.08
2022-11-05T10:49:47.413Z,85.15
2022-11-05T10:52:31.395Z,84.98
2022-11-05T10:55:00.781Z,85.72
2022-11-05T10:57:29.882Z,85.39
2022-11-05T11:00:14.157Z,84.96
2022-11-05T11:02:41.734Z,84.51
2022-11-05T11:05:08.827Z,83.92
2022-11-05T11:07:35.223Z,83.03
2022-11-05T11:10:01.662Z,81.83
2022-11-05T11:12:35.627Z,81.62
2022-11-05T11:15:13.839Z,81.53
2022-11-05T11:17:40.079Z,81.10
2022-11-05T11:20:20.157Z,81.04
2022-11-05T11:23:18.852Z,81.49
2022-11-05T11:25:52.815Z,80.66
2022-11-05T11:28:26.367Z,80.52
2022-11-05T11:31:05.050Z,80.49
2022-11-05T11:33:31.482Z,78.98
2022-11-05T11:35:57.896Z,79.70
2022-11-05T11:38:24.314Z,79.31
2022-11-05T11:40:50.729Z,79.76
2022-11-05T11:43:29.230Z,80.02
2022-11-05T11:45:59.362Z,78.95
2022-11-05T11:48:29.368Z,77.60
2022-11-05T11:50:56.391Z,77.67
2022-11-05T11:53:40.960Z,77.02
2022-11-05T11:56:19.975Z,77.84
2022-11-05T11:58:54.074Z,78.15
2022-11-05T12:01:39.221Z,77.59
2022-11-05T12:04:40.910Z,77.67
2022-11-05T12:07:32.825Z,77.82
2022-11-05T12:09:59.077Z,78.78
2022-11-05T12:12:35.366Z,78.39
2022-11-05T12:15:35.858Z,77.97
2022-11-05T12:18:06.278Z,77.41
2022-11-05T12:20:58.029Z,77.52
2022-11-05T12:23:28.351Z,76.87
2022-11-05T12:26:22.267Z,75.88
2022-11-05T12:29:18.545Z,75.40
2022-11-05T12:31:45.514Z,74.75
2022-11-05T12:34:53.350Z,74.01
2022-11-05T12:37:30.396Z,74.03
2022-11-05T12:40:02.968Z,75.90
2022-11-05T12:42:56.999Z,68.95
2022-11-05T12:45:39.274Z,62.23
2022-11-05T12:48:30.288Z,56.02
2022-11-05T12:51:19.379Z,52.57
2022-11-05T12:53:48.811Z,51.69
2022-11-05T12:56:35.747Z,54.03
2022-11-05T12:59:17.068Z,58.40
2022-11-05T13:01:46.659Z,61.92
2022-11-05T13:04:28.301Z,63.47
2022-11-05T13:06:55.081Z,65.57
2022-11-05T13:09:53.238Z,65.67
2022-11-05T13:12:21.478Z,66.77
2022-11-05T13:15:06.632Z,66.76
2022-11-05T13:17:50.960Z,67.76
2022-11-05T13:20:22.074Z,67.81
2022-11-05T13:22:51.769Z,68.65
2022-11-05T13:25:22.137Z,68.27
2022-11-05T13:27:57.743Z,68.38
2022-11-05T13:30:31.886Z,69.19
2022-11-05T13:33:02.273Z,69.73
2022-11-05T13:35:36.139Z,69.42
2022-11-05T13:38:05.305Z,70.39
2022-11-05T13:40:57.406Z,70.54
2022-11-05T13:43:44.533Z,70.90
2022-11-05T13:46:38.467Z,71.29
2022-11-05T13:49:20.632Z,71.58
2022-11-05T13:52:18.449Z,71.78
2022-11-05T13:54:49.904Z,72.92
2022-11-05T13:57:38.040Z,72.41
2022-11-05T14:00:23.847Z,71.92
2022-11-05T14:03:02.049Z,71.89
2022-11-05T14:05:35.589Z,71.69
2022-11-05T14:08:24.018Z,72.55
2022-11-05T14:11:04.966Z,72.27
2022-11-05T14:13:39.722Z,73.72
2022-11-05T14:16:10.557Z,72.56
2022-11-05T14:18:45.021Z,71.77
2022-11-05T14:21:47.470Z,72.27
2022-11-05T14:24:22.617Z,72.91
2022-11-05T14:27:01.125Z,72.24
2022-11-05T14:29:43.719Z,72.85
2022-11-05T14:32:19.277Z,72.61
2022-11-05T14:34:54.834Z,72.71
2022-11-05T14:37:22.052Z,73.23
2022-11-05T14:39:48.437Z,74.38
2022-11-05T14:42:29.460Z,74.11
2022-11-05T14:45:19.366Z,75.19
2022-11-05T14:47:54.154Z,75.26
2022-11-05T14:50:40.093Z,75.90
2022-11-05T14:53:22.631Z,76.08
2022-11-05T14:56:21.197Z,76.63
2022-11-05T14:58:47.903Z,77.04
2022-11-05T15:01:14.271Z,77.18
2022-11-05T15:03:46.049Z,77.63
2022-11-05T15:06:19.845Z,77.79
2022-11-05T15:08:49.098Z,77.82
2022-11-05T15:11:27.560Z,78.28
2022-11-05T15:13:53.819Z,78.39
2022-11-05T15:16:26.071Z,78.82
2022-11-05T15:18:53.382Z,78.63
2022-11-05T15:21:19.917Z,79.03
2022-11-05T15:23:47.733Z,79.47
2022-11-05T15:26:46.566Z,79.70
2022-11-05T15:29:23.947Z,79.84
2022-11-05T15:31:50.429Z,80.47
2022-11-05T15:34:25.027Z,80.18
2022-11-05T15:37:15.787Z,80.63
2022-11-05T15:39:43.429Z,80.77
2022-11-05T15:42:25.786Z,81.80
2022-11-05T15:44:56.575Z,81.59
2022-11-05T15:47:27.457Z,81.45
2022-11-05T15:49:58.303Z,82.19
2022-11-05T15:52:32.950Z,82.47
2022-11-05T15:57:51.255Z,82.85
2022-11-05T16:00:28.958Z,83.01
2022-11-05T16:03:12.384Z,82.58
2022-11-05T16:05:42.211Z,82.82
2022-11-05T16:08:15.311Z,83.18
2022-11-05T16:10:47.050Z,83.29
2022-11-05T16:13:35.346Z,83.49
2022-11-05T16:16:23.136Z,83.95
2022-11-05T16:18:49.936Z,84.25
2022-11-05T16:21:18.051Z,83.83
2022-11-05T16:23:57.776Z,84.42
2022-11-05T16:29:27.582Z,84.29
2022-11-05T16:31:54.531Z,84.48
2022-11-05T16:34:27.066Z,84.65
2022-11-05T16:36:57.661Z,84.11
2022-11-05T16:39:24.336Z,84.03
2022-11-05T16:41:50.962Z,83.97
2022-11-05T16:44:17.500Z,84.19
2022-11-05T16:46:47.056Z,84.15
2022-11-05T16:49:13.602Z,84.61
2022-11-05T16:51:42.337Z,84.83
2022-11-05T16:54:08.831Z,84.33
2022-11-05T16:56:35.556Z,85.07
2022-11-05T16:59:02.141Z,84.63
2022-11-05T17:01:28.929Z,84.64
2022-11-05T17:03:55.786Z,84.16
2022-11-05T17:06:22.437Z,85.02
2022-11-05T17:08:49.202Z,84.45
2022-11-05T17:11:20.065Z,84.96
2022-11-05T17:13:47.121Z,85.18
2022-11-05T17:16:16.281Z,84.37
2022-11-05T17:18:43.073Z,84.54
2022-11-05T17:21:09.869Z,84.64
2022-11-05T17:23:37.151Z,84.66
2022-11-05T17:26:10.844Z,85.20
2022-11-05T17:28:37.707Z,84.89
2022-11-05T17:31:05.442Z,85.19
2022-11-05T17:33:32.258Z,85.10
2022-11-05T17:35:58.880Z,84.77
2022-11-05T17:38:26.226Z,85.40
2022-11-05T17:40:52.844Z,85.41
2022-11-05T17:43:19.873Z,85.19
2022-11-05T17:45:48.447Z,85.41
2022-11-05T17:48:15.286Z,85.10
2022-11-05T17:50:42.968Z,85.21
2022-11-05T17:53:10.255Z,84.97
2022-11-05T17:55:37.061Z,85.17
2022-11-05T17:58:04.899Z,85.12
2022-11-05T18:00:32.199Z,85.31
2022-11-05T18:02:58.962Z,85.04
2022-11-05T18:05:25.552Z,85.43
2022-11-05T18:07:52.232Z,85.27
2022-11-05T18:10:18.673Z,85.40
2022-11-05T18:12:45.233Z,85.74
2022-11-05T18:15:12.209Z,85.05
2022-11-05T18:17:38.683Z,85.28
2022-11-05T18:20:05.770Z,84.69
2022-11-05T18:22:32.193Z,85.38
2022-11-05T18:24:58.669Z,85.35
2022-11-05T18:27:25.066Z,84.81
2022-11-05T18:29:51.466Z,84.82
2022-11-05T18:32:17.930Z,84.43
2022-11-05T18:34:44.335Z,85.93
2022-11-05T18:37:10.761Z,85.70
2022-11-05T18:39:37.205Z,85.44
2022-11-05T18:42:06.264Z,85.26
2022-11-05T18:44:37.943Z,85.44
2022-11-05T18:47:05.869Z,84.78
2022-11-05T18:49:32.364Z,85.29
2022-11-05T18:51:59.998Z,84.54
2022-11-05T18:54:26.590Z,85.09
2022-11-05T18:56:53.031Z,84.64
2022-11-05T18:59:36.855Z,85.12
2022-11-05T19:02:04.738Z,85.56
2022-11-05T19:04:31.373Z,84.66
2022-11-05T19:07:01.716Z,84.77
2022-11-05T19:09:35.723Z,85.60
2022-11-05T19:12:02.378Z,85.85
2022-11-05T19:14:30.407Z,85.71
2022-11-05T19:16:59.733Z,85.31
2022-11-05T19:19:26.235Z,85.80
2022-11-05T19:21:53.700Z,85.43
2022-11-05T19:24:20.155Z,84.55
2022-11-05T19:26:47.671Z,85.29
2022-11-05T19:29:15.267Z,84.68
2022-11-05T19:31:41.918Z,84.97
2022-11-05T19:34:09.509Z,85.06
2022-11-05T19:36:35.961Z,84.80
2022-11-05T19:39:05.879Z,85.13
2022-11-05T19:41:32.404Z,84.69
2022-11-05T19:43:58.826Z,84.37
2022-11-05T19:46:25.369Z,84.49
2022-11-05T19:48:51.842Z,84.78
2022-11-05T19:51:20.293Z,83.95
2022-11-05T19:53:46.698Z,83.79
2022-11-05T19:56:16.980Z,83.96
2022-11-05T19:58:43.784Z,84.90
2022-11-05T20:01:11.283Z,85.07
2022-11-05T20:03:37.926Z,84.81
2022-11-05T20:06:09.734Z,84.09
2022-11-05T20:08:47.845Z,85.15
2022-11-05T20:11:22.933Z,84.02
2022-11-05T20:13:49.370Z,83.95
2022-11-05T20:16:19.785Z,84.81
2022-11-05T20:18:47.601Z,84.47
2022-11-05T20:21:14.084Z,84.84
2022-11-05T20:23:40.491Z,84.82
2022-11-05T20:26:09.458Z,84.91
2022-11-05T20:28:36.235Z,84.74
2022-11-05T20:31:09.908Z,84.59
2022-11-05T20:33:36.959Z,84.36
2022-11-05T20:36:10.974Z,84.58
2022-11-05T20:38:37.501Z,85.03
2022-11-05T20:41:07.947Z,84.00
2022-11-05T20:43:34.345Z,84.08
2022-11-05T20:46:00.882Z,84.62
2022-11-05T20:48:30.518Z,84.26
2022-11-05T20:50:56.943Z,84.59
2022-11-05T20:53:23.355Z,84.81
2022-11-05T20:55:49.745Z,84.41
2022-11-05T20:58:16.599Z,84.84
2022-11-05T21:00:51.197Z,84.36
2022-11-05T21:03:18.115Z,83.74
2022-11-05T21:05:46.180Z,84.61
2022-11-05T21:08:12.740Z,84.86
2022-11-05T21:10:39.505Z,85.10
2022-11-05T21:13:05.925Z,85.05
2022-11-05T21:15:32.398Z,84.47
2022-11-05T21:18:02.228Z,84.70
2022-11-05T21:20:29.617Z,84.47
2022-11-05T21:22:56.063Z,84.51
2022-11-05T21:25:22.474Z,84.69
2022-11-05T21:27:48.850Z,84.53
2022-11-05T21:30:15.329Z,84.71
2022-11-05T21:32:41.796Z,85.10
2022-11-05T21:35:08.528Z,85.17
2022-11-05T21:37:35.262Z,84.24
2022-11-05T21:40:03.363Z,84.63
2022-11-05T21:42:29.825Z,84.33
2022-11-05T21:45:00.201Z,84.33
2022-11-05T21:47:28.404Z,84.14
2022-11-05T21:49:57.874Z,84.36
2022-11-05T21:52:24.315Z,84.10
2022-11-05T21:54:50.774Z,84.39
2022-11-05T21:57:17.244Z,83.87
2022-11-05T21:59:44.088Z,83.79
2022-11-05T22:02:12.056Z,84.05
2022-11-05T22:04:42.407Z,83.60
2022-11-05T22:07:09.826Z,83.96
2022-11-05T22:09:36.323Z,83.28
2022-11-05T22:12:02.974Z,83.95
2022-11-05T22:14:29.392Z,84.08
2022-11-05T22:16:55.930Z,83.94
2022-11-05T22:19:22.622Z,83.43
2022-11-05T22:21:49.158Z,83.47
2022-11-05T22:24:15.679Z,83.96
2022-11-05T22:26:42.235Z,84.47
2022-11-05T22:29:08.709Z,84.07
2022-11-05T22:31:36.666Z,84.01
2022-11-05T22:34:04.101Z,84.62
2022-11-05T22:36:30.483Z,83.63
2022-11-05T22:38:56.894Z,83.11
2022-11-05T22:41:23.395Z,83.12
2022-11-05T22:43:49.809Z,83.66
2022-11-05T22:46:21.220Z,83.14
2022-11-05T22:48:47.885Z,83.55
2022-11-05T22:51:19.035Z,83.34
2022-11-05T22:53:50.122Z,83.02
2022-11-05T22:56:18.225Z,82.98
2022-11-05T22:58:44.598Z,83.02
2022-11-05T23:01:11.621Z,82.16
2022-11-05T23:03:38.652Z,82.58
2022-11-05T23:06:07.123Z,83.01
2022-11-05T23:08:33.550Z,82.45
2022-11-05T23:10:59.936Z,82.21
2022-11-05T23:13:26.371Z,82.38
2022-11-05T23:15:52.824Z,82.46
2022-11-05T23:18:19.225Z,81.86
2022-11-05T23:20:45.607Z,82.78
2022-11-05T23:23:12.136Z,82.86
2022-11-05T23:25:38.510Z,82.86
2022-11-05T23:28:06.921Z,82.75
2022-11-05T23:30:33.381Z,81.75
2022-11-05T23:32:59.767Z,82.04
2022-11-05T23:35:26.177Z,82.49
2022-11-05T23:37:52.581Z,81.71
2022-11-05T23:40:26.834Z,81.84
2022-11-05T23:42:53.308Z,81.46
2022-11-05T23:45:19.889Z,81.46
2022-11-05T23:47:46.302Z,81.75
2022-11-05T23:50:12.729Z,81.52
2022-11-05T23:52:39.117Z,81.31
2022-11-05T23:55:05.629Z,81.78
2022-11-05T23:57:32.034Z,81.25
2022-11-05T23:59:58.423Z,81.43
